Time;durP1;ratioP1;P1;durP2;ratioP2;P2;SDS_P1;SDS_P2;PMS_P1;PMS_P2;Temp;Humidity;BMP_temperature;BMP_pressure;BME280_temperature;BME280_humidity;BME280_pressure;Samples;Min_cycle;Max_cycle;Signal;HPM_P1;HPM_P2
2023/01/25 00:02:25;;;;;;;;;;;17.10;48.50;;;;;;10169174;28;1902;-75
2023/01/25 00:07:20;;;;;;;;;;;17.10;48.50;;;;;;10168959;28;800;-75
2023/01/25 00:12:16;;;;;;;;;;;17.10;48.40;;;;;;10169759;28;1052;-75
2023/01/25 00:17:11;;;;;;;;;;;17.10;48.40;;;;;;10169201;28;799;-75
2023/01/25 00:22:07;;;;;;;;;;;17.10;48.40;;;;;;10169162;28;1902;-75
2023/01/25 00:27:02;;;;;;;;;;;17.10;48.50;;;;;;10168192;28;788;-76
2023/01/25 00:31:58;;;;;;;;;;;17.10;48.40;;;;;;10166796;28;772;-75
2023/01/25 00:36:53;;;;;;;;;;;17.10;48.50;;;;;;10168118;28;819;-75
2023/01/25 00:41:48;;;;;;;;;;;17.00;48.40;;;;;;10169257;28;1918;-75
2023/01/25 00:46:44;;;;;;;;;;;17.10;48.50;;;;;;10167423;28;867;-75
2023/01/25 00:51:39;;;;;;;;;;;17.10;48.50;;;;;;10166627;28;1221;-75
2023/01/25 00:56:34;;;;;;;;;;;17.00;48.40;;;;;;10167093;28;909;-75
2023/01/25 01:01:30;;;;;;;;;;;17.10;48.50;;;;;;10166827;28;1918;-75
2023/01/25 01:06:25;;;;;;;;;;;17.00;48.40;;;;;;10166705;28;884;-75
2023/01/25 01:11:20;;;;;;;;;;;17.00;48.50;;;;;;10167207;28;992;-75
2023/01/25 01:16:16;;;;;;;;;;;17.00;48.40;;;;;;10166327;28;781;-75
2023/01/25 01:21:11;;;;;;;;;;;17.00;48.40;;;;;;10166032;28;1965;-75
2023/01/25 01:26:06;;;;;;;;;;;17.00;48.30;;;;;;10165935;28;896;-75
2023/01/25 01:31:02;;;;;;;;;;;17.00;48.30;;;;;;10165784;28;770;-75
2023/01/25 01:35:57;;;;;;;;;;;17.00;48.30;;;;;;10165554;28;771;-75
2023/01/25 01:40:53;;;;;;;;;;;17.00;48.40;;;;;;10164138;28;1977;-76
2023/01/25 01:45:48;;;;;;;;;;;17.00;48.30;;;;;;10165922;28;876;-75
2023/01/25 01:50:43;;;;;;;;;;;17.00;48.20;;;;;;10165138;28;867;-75
2023/01/25 01:55:39;;;;;;;;;;;17.00;48.90;;;;;;10164906;28;890;-75
2023/01/25 02:00:34;;;;;;;;;;;17.00;48.90;;;;;;10164701;28;1907;-75
2023/01/25 02:05:30;;;;;;;;;;;17.00;48.30;;;;;;10165239;28;861;-75
2023/01/25 02:10:25;;;;;;;;;;;17.00;48.30;;;;;;10164492;28;764;-75
2023/01/25 02:15:20;;;;;;;;;;;17.00;48.30;;;;;;10165076;28;770;-75
2023/01/25 02:20:16;;;;;;;;;;;17.00;48.40;;;;;;10164261;28;1914;-75
2023/01/25 02:25:11;;;;;;;;;;;17.00;48.40;;;;;;10164715;28;782;-75
2023/01/25 02:30:06;;;;;;;;;;;17.00;48.40;;;;;;10165351;28;874;-75
2023/01/25 02:35:02;;;;;;;;;;;17.00;48.30;;;;;;10164232;28;920;-75
2023/01/25 02:39:57;;;;;;;;;;;17.00;48.30;;;;;;10163870;28;1907;-75
2023/01/25 02:44:52;;;;;;;;;;;17.00;48.30;;;;;;10163180;28;1330;-75
2023/01/25 02:49:48;;;;;;;;;;;17.00;48.40;;;;;;10163748;28;873;-75
2023/01/25 02:54:44;;;;;;;;;;;17.00;48.30;;;;;;10169763;28;888;-75
2023/01/25 02:59:40;;;;;;;;;;;17.00;48.30;;;;;;10172068;28;1960;-75
2023/01/25 03:04:35;;;;;;;;;;;17.00;48.40;;;;;;10171973;28;768;-75
2023/01/25 03:09:30;;;;;;;;;;;17.00;48.30;;;;;;10171363;28;936;-75
2023/01/25 03:14:26;;;;;;;;;;;17.00;48.20;;;;;;10171551;28;907;-75
2023/01/25 03:19:21;;;;;;;;;;;17.00;48.20;;;;;;10170093;28;1906;-75
2023/01/25 03:24:16;;;;;;;;;;;17.00;48.20;;;;;;10170606;28;806;-75
2023/01/25 03:29:12;;;;;;;;;;;17.00;48.30;;;;;;10171022;28;807;-75
2023/01/25 03:34:07;;;;;;;;;;;16.90;48.30;;;;;;10170797;28;905;-75
2023/01/25 03:39:02;;;;;;;;;;;17.00;48.30;;;;;;10170264;28;1358;-75
2023/01/25 03:43:58;;;;;;;;;;;16.90;48.30;;;;;;10169772;28;1971;-76
2023/01/25 03:48:53;;;;;;;;;;;16.90;48.30;;;;;;10170270;28;892;-75
2023/01/25 03:53:48;;;;;;;;;;;17.00;48.30;;;;;;10169543;28;895;-75
2023/01/25 03:58:44;;;;;;;;;;;16.90;48.30;;;;;;10169306;28;831;-76
2023/01/25 04:03:39;;;;;;;;;;;17.00;48.30;;;;;;10169369;28;1902;-75
2023/01/25 04:08:34;;;;;;;;;;;17.00;48.30;;;;;;10168936;28;869;-75
2023/01/25 04:13:30;;;;;;;;;;;17.00;48.30;;;;;;10169368;28;814;-75
2023/01/25 04:18:25;;;;;;;;;;;16.90;48.20;;;;;;10169146;28;907;-76
2023/01/25 04:23:21;;;;;;;;;;;16.90;48.20;;;;;;10168333;28;1974;-75
2023/01/25 04:28:16;;;;;;;;;;;16.90;48.20;;;;;;10167888;28;932;-75
2023/01/25 04:33:12;;;;;;;;;;;17.00;48.30;;;;;;10168605;28;893;-75
2023/01/25 04:38:07;;;;;;;;;;;16.90;48.20;;;;;;10167400;28;1349;-75
2023/01/25 04:43:02;;;;;;;;;;;16.90;48.20;;;;;;10167566;28;1973;-75
2023/01/25 04:47:58;;;;;;;;;;;16.90;48.20;;;;;;10167704;28;785;-75
2023/01/25 04:52:53;;;;;;;;;;;16.90;48.20;;;;;;10167315;28;924;-75
2023/01/25 04:57:49;;;;;;;;;;;16.90;48.20;;;;;;10167132;28;772;-75
2023/01/25 05:02:45;;;;;;;;;;;16.90;48.10;;;;;;10166829;28;1915;-75
2023/01/25 05:07:40;;;;;;;;;;;16.90;48.10;;;;;;10166744;28;859;-75
2023/01/25 05:12:35;;;;;;;;;;;17.00;48.20;;;;;;10166549;28;786;-75
2023/01/25 05:17:31;;;;;;;;;;;17.00;48.20;;;;;;10165303;28;1055;-75
2023/01/25 05:22:26;;;;;;;;;;;17.00;48.10;;;;;;10166062;28;1902;-75
2023/01/25 05:27:21;;;;;;;;;;;17.00;48.10;;;;;;10165365;28;893;-75
2023/01/25 05:32:17;;;;;;;;;;;17.00;48.00;;;;;;10166552;28;795;-75
2023/01/25 05:37:12;;;;;;;;;;;17.00;47.90;;;;;;10165603;28;783;-75
2023/01/25 05:42:08;;;;;;;;;;;17.10;47.90;;;;;;10165991;28;1906;-75
2023/01/25 05:47:03;;;;;;;;;;;17.00;47.80;;;;;;10166035;28;881;-75
2023/01/25 05:51:58;;;;;;;;;;;17.00;47.80;;;;;;10165109;28;956;-75
2023/01/25 05:56:54;;;;;;;;;;;17.10;47.90;;;;;;10164960;28;935;-75
2023/01/25 06:01:49;;;;;;;;;;;17.00;47.90;;;;;;10164728;28;1954;-75
2023/01/25 06:06:44;;;;;;;;;;;17.10;47.90;;;;;;10164057;28;909;-75
2023/01/25 06:11:40;;;;;;;;;;;17.00;47.80;;;;;;10166001;28;990;-75
2023/01/25 06:16:35;;;;;;;;;;;17.10;47.90;;;;;;10164399;28;723;-75
2023/01/25 06:21:30;;;;;;;;;;;17.10;47.90;;;;;;10164187;28;1906;-76
2023/01/25 06:26:26;;;;;;;;;;;17.00;47.80;;;;;;10164270;28;881;-74
2023/01/25 06:31:21;;;;;;;;;;;17.10;47.90;;;;;;10164885;28;857;-75
2023/01/25 06:36:17;;;;;;;;;;;17.00;47.80;;;;;;10163997;28;943;-76
2023/01/25 06:41:12;;;;;;;;;;;17.10;47.90;;;;;;10163259;28;1906;-77
2023/01/25 06:46:08;;;;;;;;;;;17.10;47.90;;;;;;10163750;28;889;-77
2023/01/25 06:51:03;;;;;;;;;;;17.10;47.90;;;;;;10164289;28;813;-77
2023/01/25 06:55:58;;;;;;;;;;;17.10;47.80;;;;;;10163705;28;861;-77
2023/01/25 07:00:54;;;;;;;;;;;17.00;47.80;;;;;;10161964;28;1976;-74
2023/01/25 07:05:49;;;;;;;;;;;17.10;47.80;;;;;;10163421;28;774;-73
2023/01/25 07:10:45;;;;;;;;;;;17.00;47.80;;;;;;10164558;28;894;-73
2023/01/25 07:15:40;;;;;;;;;;;17.00;47.80;;;;;;10163219;28;759;-73
2023/01/25 07:20:36;;;;;;;;;;;16.90;47.90;;;;;;10163530;28;1906;-73
2023/01/25 07:25:31;;;;;;;;;;;16.90;47.90;;;;;;10163055;28;983;-73
2023/01/25 07:30:26;;;;;;;;;;;16.90;47.90;;;;;;10162411;28;782;-72
2023/01/25 07:35:22;;;;;;;;;;;17.00;47.80;;;;;;10162899;28;769;-71
2023/01/25 07:40:17;;;;;;;;;;;17.20;47.90;;;;;;10166496;28;1914;-73
2023/01/25 07:45:12;;;;;;;;;;;17.40;47.90;;;;;;10169891;28;798;-72
2023/01/25 07:50:08;;;;;;;;;;;17.40;47.90;;;;;;10170247;28;873;-72
2023/01/25 07:55:03;;;;;;;;;;;17.40;47.90;;;;;;10169569;28;818;-73
2023/01/25 07:59:59;;;;;;;;;;;17.40;47.80;;;;;;10170686;28;1968;-71
2023/01/25 08:04:54;;;;;;;;;;;17.40;48.20;;;;;;10169379;28;823;-69
2023/01/25 08:09:49;;;;;;;;;;;17.40;48.50;;;;;;10168985;28;929;-71
2023/01/25 08:14:45;;;;;;;;;;;17.40;48.40;;;;;;10168444;28;1024;-72
2023/01/25 08:19:40;;;;;;;;;;;17.40;48.30;;;;;;10168574;28;1957;-72
2023/01/25 08:24:35;;;;;;;;;;;17.50;48.20;;;;;;10168500;28;751;-72
2023/01/25 08:29:31;;;;;;;;;;;17.50;48.10;;;;;;10167887;28;1150;-71
2023/01/25 08:34:30;;;;;;;;;;;17.50;48.10;;;;;;10168668;28;862;-71
2023/01/25 08:39:25;;;;;;;;;;;17.50;48.10;;;;;;10167780;28;1902;-71
2023/01/25 08:44:22;;;;;;;;;;;17.50;47.90;;;;;;10167692;28;771;-70
2023/01/25 08:49:18;;;;;;;;;;;17.50;47.90;;;;;;10167088;28;881;-72
2023/01/25 08:54:13;;;;;;;;;;;17.50;47.90;;;;;;10167843;28;869;-72
2023/01/25 08:59:09;;;;;;;;;;;17.50;47.80;;;;;;10167032;28;951;-72
2023/01/25 09:04:04;;;;;;;;;;;17.50;47.90;;;;;;10166760;28;1957;-72
2023/01/25 09:08:59;;;;;;;;;;;17.50;48.00;;;;;;10166772;28;953;-73
2023/01/25 09:13:55;;;;;;;;;;;17.50;47.90;;;;;;10165527;28;1193;-72
2023/01/25 09:18:50;;;;;;;;;;;17.50;48.00;;;;;;10166327;28;875;-72
2023/01/25 09:23:47;;;;;;;;;;;17.50;48.10;;;;;;10165594;28;1902;-72
2023/01/25 09:28:42;;;;;;;;;;;17.50;48.10;;;;;;10165783;28;872;-72
2023/01/25 09:33:38;;;;;;;;;;;17.50;48.10;;;;;;10166975;28;937;-72
2023/01/25 09:38:33;;;;;;;;;;;17.50;48.30;;;;;;10165754;28;1174;-72
2023/01/25 09:43:29;;;;;;;;;;;17.40;48.80;;;;;;10166088;28;1981;-71
2023/01/25 09:48:24;;;;;;;;;;;17.50;48.80;;;;;;10165228;28;862;-71
2023/01/25 09:53:20;;;;;;;;;;;17.50;49.00;;;;;;10165135;28;830;-70
2023/01/25 09:58:15;;;;;;;;;;;17.40;48.70;;;;;;10165060;28;844;-74
2023/01/25 10:03:11;;;;;;;;;;;17.30;48.50;;;;;;10164328;28;1902;-74
2023/01/25 10:08:06;;;;;;;;;;;17.20;48.80;;;;;;10164565;28;884;-74
2023/01/25 10:13:02;;;;;;;;;;;17.10;48.70;;;;;;10165116;28;886;-74
2023/01/25 10:17:57;;;;;;;;;;;17.10;48.60;;;;;;10164435;28;774;-74
2023/01/25 10:22:52;;;;;;;;;;;17.00;48.50;;;;;;10164776;28;1976;-74
2023/01/25 10:27:48;;;;;;;;;;;17.00;48.50;;;;;;10164796;28;802;-74
2023/01/25 10:32:44;;;;;;;;;;;17.00;48.40;;;;;;10164041;28;842;-74
2023/01/25 10:37:39;;;;;;;;;;;17.00;48.40;;;;;;10163450;28;1344;-74
2023/01/25 10:42:35;;;;;;;;;;;17.10;48.30;;;;;;10163895;28;1906;-74
2023/01/25 10:47:30;;;;;;;;;;;17.00;48.20;;;;;;10164576;28;891;-74
2023/01/25 10:52:25;;;;;;;;;;;17.00;48.20;;;;;;10163717;28;879;-74
2023/01/25 10:57:21;;;;;;;;;;;17.00;48.10;;;;;;10163623;28;802;-75
2023/01/25 11:02:16;;;;;;;;;;;17.00;48.20;;;;;;10163724;28;1973;-74
2023/01/25 11:07:11;;;;;;;;;;;17.00;48.00;;;;;;10163494;28;777;-74
2023/01/25 11:12:07;;;;;;;;;;;17.00;48.00;;;;;;10163337;28;870;-76
2023/01/25 11:17:02;;;;;;;;;;;16.90;48.00;;;;;;10169501;28;1166;-73
2023/01/25 11:21:58;;;;;;;;;;;17.30;47.70;;;;;;10168450;28;2006;-73
2023/01/25 11:26:53;;;;;;;;;;;17.40;47.90;;;;;;10170519;28;868;-72
2023/01/25 11:31:48;;;;;;;;;;;17.50;47.60;;;;;;10170445;28;806;-72
2023/01/25 11:36:44;;;;;;;;;;;17.50;47.60;;;;;;10170621;28;861;-73
2023/01/25 11:41:39;;;;;;;;;;;17.50;47.50;;;;;;10169992;28;1922;-72
2023/01/25 11:46:35;;;;;;;;;;;17.60;47.60;;;;;;10170040;28;861;-73
2023/01/25 11:51:31;;;;;;;;;;;17.60;47.60;;;;;;10169095;28;1047;-72
2023/01/25 11:56:26;;;;;;;;;;;17.60;47.50;;;;;;10168934;28;852;-72
2023/01/25 12:01:22;;;;;;;;;;;17.40;47.30;;;;;;10169601;28;1906;-73
2023/01/25 12:06:17;;;;;;;;;;;17.40;47.30;;;;;;10169911;28;803;-72
2023/01/25 12:11:12;;;;;;;;;;;17.40;47.10;;;;;;10169436;28;965;-73
2023/01/25 12:16:08;;;;;;;;;;;17.40;47.20;;;;;;10168814;28;927;-73
2023/01/25 12:21:03;;;;;;;;;;;17.50;47.20;;;;;;10169142;28;1902;-73
2023/01/25 12:25:58;;;;;;;;;;;17.50;47.30;;;;;;10168506;28;858;-74
2023/01/25 12:30:54;;;;;;;;;;;17.50;47.20;;;;;;10167671;28;1012;-73
2023/01/25 12:35:49;;;;;;;;;;;17.60;47.10;;;;;;10167980;28;935;-73
2023/01/25 12:40:45;;;;;;;;;;;17.50;47.10;;;;;;10168030;28;1914;-72
2023/01/25 12:45:42;;;;;;;;;;;17.50;47.10;;;;;;10168297;28;882;-73
2023/01/25 12:50:38;;;;;;;;;;;17.60;47.10;;;;;;10167246;28;1181;-73
2023/01/25 12:55:33;;;;;;;;;;;17.50;47.30;;;;;;10167896;28;953;-71
2023/01/25 13:00:28;;;;;;;;;;;17.50;47.30;;;;;;10166139;28;1979;-71
2023/01/25 13:05:24;;;;;;;;;;;17.50;47.30;;;;;;10167551;28;970;-71
2023/01/25 13:10:19;;;;;;;;;;;17.50;47.50;;;;;;10166691;28;929;-71
2023/01/25 13:15:15;;;;;;;;;;;17.50;47.40;;;;;;10166609;28;848;-71
2023/01/25 13:20:10;;;;;;;;;;;17.50;47.50;;;;;;10166365;28;1969;-71
2023/01/25 13:25:05;;;;;;;;;;;17.50;47.40;;;;;;10166120;28;905;-69
2023/01/25 13:30:02;;;;;;;;;;;17.50;47.40;;;;;;10165781;28;862;-71
2023/01/25 13:34:57;;;;;;;;;;;17.40;47.40;;;;;;10165544;28;892;-71
2023/01/25 13:39:53;;;;;;;;;;;17.40;47.40;;;;;;10165489;28;1922;-72
2023/01/25 13:44:49;;;;;;;;;;;17.40;47.50;;;;;;10165725;28;846;-71
2023/01/25 13:49:44;;;;;;;;;;;17.30;47.50;;;;;;10164996;28;800;-73
2023/01/25 13:54:39;;;;;;;;;;;17.30;47.40;;;;;;10164749;28;798;-73
2023/01/25 13:59:35;;;;;;;;;;;17.30;47.30;;;;;;10164803;28;1910;-75
2023/01/25 14:04:30;;;;;;;;;;;17.40;47.20;;;;;;10165067;28;806;-75
2023/01/25 14:09:26;;;;;;;;;;;17.40;47.00;;;;;;10164520;28;783;-75
2023/01/25 14:14:21;;;;;;;;;;;17.40;47.10;;;;;;10164246;28;858;-75
2023/01/25 14:19:16;;;;;;;;;;;17.30;47.10;;;;;;10164785;28;845;-75
2023/01/25 14:24:12;;;;;;;;;;;17.30;47.30;;;;;;10163267;28;1965;-75
2023/01/25 14:29:07;;;;;;;;;;;17.30;47.20;;;;;;10164386;28;908;-75
2023/01/25 14:34:04;;;;;;;;;;;17.30;47.20;;;;;;10164387;28;821;-75
2023/01/25 14:39:00;;;;;;;;;;;17.30;47.20;;;;;;10164156;28;1381;-75
2023/01/25 14:43:55;;;;;;;;;;;17.30;47.30;;;;;;10164050;28;1973;-75
2023/01/25 14:48:51;;;;;;;;;;;17.30;47.20;;;;;;10166018;28;806;-75
2023/01/25 14:53:47;;;;;;;;;;;17.30;47.00;;;;;;10171861;28;804;-75
2023/01/25 14:58:42;;;;;;;;;;;17.30;47.00;;;;;;10171426;28;802;-75
2023/01/25 15:03:37;;;;;;;;;;;17.30;47.10;;;;;;10168556;28;1934;-71
2023/01/25 15:08:33;;;;;;;;;;;17.30;46.90;;;;;;10168858;28;1126;-71
2023/01/25 15:13:29;;;;;;;;;;;17.40;47.00;;;;;;10170859;28;920;-71
2023/01/25 15:18:24;;;;;;;;;;;17.40;47.20;;;;;;10171185;28;858;-71
2023/01/25 15:23:19;;;;;;;;;;;17.50;47.30;;;;;;10170976;28;1894;-72
2023/01/25 15:28:15;;;;;;;;;;;17.50;47.20;;;;;;10170274;28;1019;-71
2023/01/25 15:33:10;;;;;;;;;;;17.50;47.20;;;;;;10169515;28;827;-71
2023/01/25 15:38:05;;;;;;;;;;;17.50;47.20;;;;;;10169860;28;1437;-71
2023/01/25 15:43:01;;;;;;;;;;;17.50;47.20;;;;;;10170344;28;1965;-71
2023/01/25 15:47:56;;;;;;;;;;;17.50;47.30;;;;;;10169535;28;913;-71
2023/01/25 15:52:51;;;;;;;;;;;17.50;47.30;;;;;;10184695;28;774;-72
2023/01/25 15:57:47;;;;;;;;;;;17.50;47.20;;;;;;10169190;28;872;-72
2023/01/25 16:02:42;;;;;;;;;;;17.40;47.30;;;;;;10168652;28;1906;-72
2023/01/25 16:07:38;;;;;;;;;;;17.40;47.30;;;;;;10169463;28;783;-72
2023/01/25 16:12:35;;;;;;;;;;;17.50;47.30;;;;;;10169255;28;949;-71
2023/01/25 16:17:32;;;;;;;;;;;17.50;47.30;;;;;;10168446;28;933;-72
2023/01/25 16:22:27;;;;;;;;;;;17.40;47.00;;;;;;10168550;28;1903;-73
2023/01/25 16:27:34;;;;;;;;;;;17.40;47.70;;;;;;10169358;28;814;-73
2023/01/25 16:32:29;;;;;;;;;;;17.30;47.00;;;;;;10168395;28;841;-74
2023/01/25 16:37:25;;;;;;;;;;;17.40;46.70;;;;;;10168339;28;1416;-75
2023/01/25 16:42:20;;;;;;;;;;;17.40;46.70;;;;;;10168163;28;1918;-75
2023/01/25 16:47:16;;;;;;;;;;;17.40;46.70;;;;;;10167706;28;787;-75
2023/01/25 16:52:11;;;;;;;;;;;17.40;46.60;;;;;;10168124;28;796;-74
2023/01/25 16:57:07;;;;;;;;;;;17.50;46.70;;;;;;10167342;28;795;-75
2023/01/25 17:02:03;;;;;;;;;;;17.50;46.70;;;;;;10167081;28;1903;-75
2023/01/25 17:06:58;;;;;;;;;;;17.40;46.90;;;;;;10167595;28;842;-75
2023/01/25 17:11:54;;;;;;;;;;;17.40;47.40;;;;;;10165977;28;888;-75
2023/01/25 17:16:50;;;;;;;;;;;17.40;46.90;;;;;;10167187;28;951;-75
2023/01/25 17:21:45;;;;;;;;;;;17.40;46.90;;;;;;10166877;28;2006;-75
2023/01/25 17:26:41;;;;;;;;;;;17.40;47.00;;;;;;10166755;28;857;-75
2023/01/25 17:31:36;;;;;;;;;;;17.40;46.90;;;;;;10166583;28;755;-75
2023/01/25 17:36:31;;;;;;;;;;;17.40;47.00;;;;;;10165862;28;905;-75
2023/01/25 17:41:27;;;;;;;;;;;17.40;46.90;;;;;;10165912;28;1923;-74
2023/01/25 17:46:24;;;;;;;;;;;17.40;46.80;;;;;;10166119;28;912;-75
2023/01/25 17:51:20;;;;;;;;;;;17.40;46.70;;;;;;10164729;28;882;-76
2023/01/25 17:56:15;;;;;;;;;;;17.30;46.90;;;;;;10165765;28;889;-75
2023/01/25 18:01:10;;;;;;;;;;;17.20;47.30;;;;;;10164898;28;1998;-75
2023/01/25 18:06:08;;;;;;;;;;;17.30;47.10;;;;;;10165405;28;911;-75
2023/01/25 18:11:07;;;;;;;;;;;17.40;47.20;;;;;;10164047;28;1040;-76
2023/01/25 18:16:04;;;;;;;;;;;17.50;47.10;;;;;;10164574;28;879;-76
2023/01/25 18:20:59;;;;;;;;;;;17.50;47.30;;;;;;10164392;28;1906;-73
2023/01/25 18:25:54;;;;;;;;;;;17.50;47.50;;;;;;10164053;28;961;-73
2023/01/25 18:30:50;;;;;;;;;;;17.50;47.40;;;;;;10164936;28;877;-73
2023/01/25 18:35:47;;;;;;;;;;;17.50;47.10;;;;;;10164068;28;937;-73
2023/01/25 18:40:45;;;;;;;;;;;17.50;46.90;;;;;;10163706;28;1947;-72
2023/01/25 18:45:41;;;;;;;;;;;17.50;46.90;;;;;;10163861;28;860;-72
2023/01/25 18:50:36;;;;;;;;;;;17.50;46.80;;;;;;10164063;28;906;-73
2023/01/25 18:55:32;;;;;;;;;;;17.50;47.10;;;;;;10163481;28;818;-72
2023/01/25 19:00:27;;;;;;;;;;;17.50;47.20;;;;;;10164355;28;1969;-73
2023/01/25 19:05:22;;;;;;;;;;;17.50;47.10;;;;;;10163250;28;815;-73
2023/01/25 19:10:18;;;;;;;;;;;17.50;47.10;;;;;;10163079;28;759;-73
2023/01/25 19:15:13;;;;;;;;;;;17.50;47.10;;;;;;10163745;28;945;-77
2023/01/25 19:20:09;;;;;;;;;;;17.50;47.20;;;;;;10163797;28;1902;-72
2023/01/25 19:25:04;;;;;;;;;;;17.50;47.10;;;;;;10163250;28;766;-79
2023/01/25 19:30:00;;;;;;;;;;;17.40;47.10;;;;;;10163086;28;720;-80
2023/01/25 19:34:55;;;;;;;;;;;17.20;47.60;;;;;;10165507;28;863;-80
2023/01/25 19:39:50;;;;;;;;;;;17.00;47.70;;;;;;10170060;28;2001;-80
2023/01/25 19:44:46;;;;;;;;;;;17.00;47.80;;;;;;10170720;28;857;-80
2023/01/25 19:49:41;;;;;;;;;;;16.90;47.90;;;;;;10170575;28;757;-79
2023/01/25 19:54:36;;;;;;;;;;;16.90;47.90;;;;;;10169728;28;795;-72
2023/01/25 19:59:32;;;;;;;;;;;17.00;47.80;;;;;;10170184;28;788;-78
2023/01/25 20:04:27;;;;;;;;;;;17.00;47.70;;;;;;10170046;28;1949;-78
2023/01/25 20:09:26;;;;;;;;;;;17.00;47.60;;;;;;10169203;28;908;-78
2023/01/25 20:14:22;;;;;;;;;;;17.00;47.70;;;;;;10169015;28;770;-78
2023/01/25 20:19:17;;;;;;;;;;;16.90;47.60;;;;;;10168879;28;862;-78
2023/01/25 20:24:13;;;;;;;;;;;17.00;47.70;;;;;;10168569;28;1959;-77
2023/01/25 20:29:08;;;;;;;;;;;16.90;47.60;;;;;;10169156;28;810;-78
2023/01/25 20:34:03;;;;;;;;;;;17.00;47.80;;;;;;10168292;28;838;-78
2023/01/25 20:38:59;;;;;;;;;;;17.00;47.70;;;;;;10168103;28;1170;-78
2023/01/25 20:43:56;;;;;;;;;;;16.90;47.70;;;;;;10167814;28;1906;-77
2023/01/25 20:48:51;;;;;;;;;;;16.90;47.80;;;;;;10168280;28;833;-78
2023/01/25 20:53:46;;;;;;;;;;;16.90;47.70;;;;;;10167522;28;791;-78
2023/01/25 20:58:44;;;;;;;;;;;16.90;47.80;;;;;;10167343;28;791;-77
2023/01/25 21:03:40;;;;;;;;;;;16.90;47.80;;;;;;10166999;28;1907;-78
2023/01/25 21:08:35;;;;;;;;;;;16.80;47.80;;;;;;10166204;28;972;-78
2023/01/25 21:13:31;;;;;;;;;;;16.80;47.80;;;;;;10166788;28;790;-78
2023/01/25 21:18:26;;;;;;;;;;;16.80;47.80;;;;;;10167112;28;885;-78
2023/01/25 21:23:21;;;;;;;;;;;16.80;47.80;;;;;;10165721;28;1902;-78
2023/01/25 21:28:17;;;;;;;;;;;16.80;47.80;;;;;;10166231;28;767;-77
2023/01/25 21:33:12;;;;;;;;;;;16.80;47.80;;;;;;10167229;28;854;-78
2023/01/25 21:38:07;;;;;;;;;;;16.80;47.90;;;;;;10165955;28;1218;-78
2023/01/25 21:43:03;;;;;;;;;;;16.80;47.90;;;;;;10165679;28;1898;-78
2023/01/25 21:47:58;;;;;;;;;;;16.80;47.80;;;;;;10166173;28;775;-78
2023/01/25 21:52:54;;;;;;;;;;;16.80;47.80;;;;;;10165282;28;909;-77
2023/01/25 21:57:50;;;;;;;;;;;16.80;47.80;;;;;;10164018;28;1127;-78
2023/01/25 22:02:45;;;;;;;;;;;16.80;47.80;;;;;;10164930;28;1914;-78
2023/01/25 22:07:41;;;;;;;;;;;16.80;47.80;;;;;;10164832;28;786;-78
2023/01/25 22:12:36;;;;;;;;;;;16.80;47.80;;;;;;10164051;28;917;-77
2023/01/25 22:17:31;;;;;;;;;;;16.80;47.80;;;;;;10180155;28;1258;-77
2023/01/25 22:22:27;;;;;;;;;;;16.80;47.80;;;;;;10163981;28;1975;-78
2023/01/25 22:27:22;;;;;;;;;;;16.80;47.80;;;;;;10164270;28;767;-78
2023/01/25 22:32:18;;;;;;;;;;;16.70;47.70;;;;;;10164149;28;904;-78
2023/01/25 22:37:13;;;;;;;;;;;16.70;47.70;;;;;;10164044;28;775;-78
2023/01/25 22:42:08;;;;;;;;;;;16.80;47.80;;;;;;10164191;28;1973;-77
2023/01/25 22:47:04;;;;;;;;;;;16.70;48.30;;;;;;10164452;28;790;-75
2023/01/25 22:51:59;;;;;;;;;;;16.70;47.70;;;;;;10164627;28;845;-75
2023/01/25 22:56:54;;;;;;;;;;;16.70;47.80;;;;;;10163850;28;1161;-75
2023/01/25 23:01:50;;;;;;;;;;;16.70;47.80;;;;;;10162991;28;1911;-75
2023/01/25 23:06:45;;;;;;;;;;;16.70;47.80;;;;;;10163535;28;776;-75
2023/01/25 23:11:40;;;;;;;;;;;16.70;47.80;;;;;;10168866;28;850;-75
2023/01/25 23:16:36;;;;;;;;;;;16.70;47.80;;;;;;10171174;28;895;-75
2023/01/25 23:21:31;;;;;;;;;;;16.70;47.70;;;;;;10170404;28;1910;-75
2023/01/25 23:26:28;;;;;;;;;;;16.70;47.80;;;;;;10171487;28;858;-75
2023/01/25 23:31:23;;;;;;;;;;;16.70;47.80;;;;;;10171238;28;844;-75
2023/01/25 23:36:19;;;;;;;;;;;16.70;47.80;;;;;;10170843;28;787;-75
2023/01/25 23:41:14;;;;;;;;;;;16.70;47.80;;;;;;10171149;28;1914;-75
2023/01/25 23:46:10;;;;;;;;;;;16.70;47.70;;;;;;10170709;28;850;-75
2023/01/25 23:51:05;;;;;;;;;;;16.70;47.80;;;;;;10170713;28;852;-75
2023/01/25 23:56:00;;;;;;;;;;;16.70;47.70;;;;;;10170338;28;953;-75
